Time;durP1;ratioP1;P1;durP2;ratioP2;P2;SDS_P1;SDS_P2;PMS_P1;PMS_P2;Temp;Humidity;BMP_temperature;BMP_pressure;BME280_temperature;BME280_humidity;BME280_pressure;Samples;Min_cycle;Max_cycle;Signal;HPM_P1;HPM_P2
2024/01/21 00:00:08;;;;;;;12.32;2.67;;;;;;;8.00;100.00;98764.44;5072254;28;20048;-71
2024/01/21 00:02:38;;;;;;;11.23;2.43;;;;;;;8.06;100.00;98753.66;5073885;28;20442;-71
2024/01/21 00:05:05;;;;;;;7.18;1.70;;;;;;;8.07;100.00;98752.72;5073056;28;20075;-71
2024/01/21 00:07:31;;;;;;;10.02;2.00;;;;;;;7.83;100.00;98741.97;5072609;28;20055;-70
2024/01/21 00:09:58;;;;;;;7.68;2.13;;;;;;;7.69;100.00;98734.97;5072699;28;20052;-70
2024/01/21 00:12:25;;;;;;;10.50;2.20;;;;;;;7.74;100.00;98734.69;5073353;28;20543;-70
2024/01/21 00:14:51;;;;;;;14.45;1.80;;;;;;;7.91;100.00;98729.31;5072755;28;20125;-71
2024/01/21 00:17:18;;;;;;;9.27;1.77;;;;;;;7.97;100.00;98715.13;5072286;28;20049;-70
2024/01/21 00:19:45;;;;;;;10.95;2.30;;;;;;;7.99;100.00;98732.31;5067711;28;20402;-70
2024/01/21 00:22:12;;;;;;;16.67;2.53;;;;;;;7.71;100.00;98709.66;5072702;28;20083;-70
2024/01/21 00:24:40;;;;;;;9.80;2.15;;;;;;;7.69;100.00;98708.91;5072931;28;20048;-71
2024/01/21 00:27:06;;;;;;;12.00;3.08;;;;;;;7.84;100.00;98717.59;5071255;28;20059;-70
2024/01/21 00:29:33;;;;;;;10.63;2.45;;;;;;;7.85;100.00;98716.66;5070987;28;20538;-70
2024/01/21 00:32:00;;;;;;;10.07;1.90;;;;;;;7.88;100.00;98711.28;5072475;28;20075;-70
2024/01/21 00:34:26;;;;;;;7.72;2.03;;;;;;;7.91;100.00;98718.91;5071950;28;20362;-70
2024/01/21 00:36:55;;;;;;;14.68;2.60;;;;;;;7.75;100.00;98712.91;5072698;28;20382;-70
2024/01/21 00:39:22;;;;;;;12.10;2.05;;;;;;;7.75;100.00;98708.53;5072240;28;20045;-71
2024/01/21 00:41:48;;;;;;;9.10;2.15;;;;;;;7.75;100.00;98708.53;5072692;28;20046;-70
2024/01/21 00:44:30;;;;;;;12.65;2.53;;;;;;;7.69;100.00;98688.06;5073004;28;20052;-71
2024/01/21 00:46:56;;;;;;;9.25;2.10;;;;;;;7.59;100.00;98684.31;5072007;28;20048;-70
2024/01/21 00:49:23;;;;;;;10.73;2.17;;;;;;;7.71;100.00;98690.59;5071304;28;20406;-70
2024/01/21 00:51:50;;;;;;;11.77;2.35;;;;;;;7.54;100.00;98691.56;5070648;28;20051;-71
2024/01/21 00:54:17;;;;;;;10.25;2.35;;;;;;;7.41;100.00;98670.59;5073028;28;20127;-71
2024/01/21 00:56:43;;;;;;;10.40;1.85;;;;;;;7.55;100.00;98681.06;5072375;28;20094;-71
2024/01/21 00:59:10;;;;;;;11.70;2.10;;;;;;;7.41;100.00;98674.03;5070501;28;20070;-71
2024/01/21 01:01:38;;;;;;;20.38;2.72;;;;;;;7.61;100.00;98666.81;5071445;28;20044;-70
2024/01/21 01:04:05;;;;;;;13.15;2.72;;;;;;;7.25;100.00;98659.41;5072989;28;20367;-71
2024/01/21 01:06:35;;;;;;;15.00;2.60;;;;;;;7.23;100.00;98652.50;5072378;28;20502;-70
2024/01/21 01:09:04;;;;;;;8.02;2.08;;;;;;;7.13;100.00;98650.50;5070675;28;20056;-71
2024/01/21 01:11:31;;;;;;;8.25;1.92;;;;;;;7.19;100.00;98644.97;5071896;28;20067;-71
2024/01/21 01:13:58;;;;;;;8.95;2.03;;;;;;;7.28;100.00;98627.97;5072147;28;20059;-70
2024/01/21 01:16:25;;;;;;;8.32;2.58;;;;;;;7.01;100.00;98624.28;5071764;28;20565;-70
2024/01/21 01:18:51;;;;;;;11.35;2.78;;;;;;;7.19;100.00;98621.53;5070563;28;20068;-70
2024/01/21 01:21:18;;;;;;;8.27;1.98;;;;;;;7.43;100.00;98613.22;5071667;28;20114;-71
2024/01/21 01:23:45;;;;;;;10.90;2.30;;;;;;;7.26;100.00;98617.66;5070703;28;20359;-71
2024/01/21 01:26:12;;;;;;;10.65;2.55;;;;;;;7.00;100.00;98606.13;5071265;28;20714;-71
2024/01/21 01:28:38;;;;;;;16.65;2.17;;;;;;;7.40;100.00;98590.78;5066764;28;20044;-71
2024/01/21 01:31:09;;;;;;;15.07;2.28;;;;;;;7.29;100.00;98593.22;5071723;28;20390;-71
2024/01/21 01:33:36;;;;;;;13.27;2.72;;;;;;;7.21;100.00;98580.66;5071456;28;20055;-71
2024/01/21 01:36:03;;;;;;;11.02;2.10;;;;;;;7.30;100.00;98579.28;5071388;28;20425;-71
2024/01/21 01:38:29;;;;;;;11.07;2.22;;;;;;;7.14;100.00;98582.75;5066109;28;20087;-71
2024/01/21 01:40:56;;;;;;;12.63;2.25;;;;;;;7.13;100.00;98578.47;5071870;28;20048;-71
2024/01/21 01:43:23;;;;;;;13.27;3.05;;;;;;;7.15;100.00;98574.03;5070442;28;20052;-71
2024/01/21 01:45:51;;;;;;;13.48;2.40;;;;;;;7.21;100.00;98573.66;5070680;28;20395;-70
2024/01/21 01:48:19;;;;;;;9.23;1.80;;;;;;;6.93;100.00;98564.00;5058243;28;20494;-70
2024/01/21 01:50:46;;;;;;;13.05;2.50;;;;;;;7.10;100.00;98563.06;5071693;28;20055;-70
2024/01/21 01:53:14;;;;;;;10.90;2.75;;;;;;;6.95;100.00;98567.38;5070820;28;20467;-70
2024/01/21 01:55:44;;;;;;;13.48;2.45;;;;;;;7.15;100.00;98553.22;5070735;28;20517;-71
2024/01/21 01:58:14;;;;;;;9.88;2.40;;;;;;;7.36;100.00;98560.69;5068933;28;20056;-70
2024/01/21 02:00:45;;;;;;;12.82;2.10;;;;;;;7.28;100.00;98550.72;5057568;28;20053;-70
2024/01/21 02:03:12;;;;;;;11.30;2.88;;;;;;;7.16;100.00;98547.06;5069720;28;20360;-70
2024/01/21 02:05:39;;;;;;;12.52;2.22;;;;;;;7.27;100.00;98553.41;5070313;28;20052;-70
2024/01/21 02:08:06;;;;;;;9.82;2.72;;;;;;;7.44;100.00;98555.00;5071061;28;20406;-71
2024/01/21 02:10:32;;;;;;;15.90;3.25;;;;;;;7.41;100.00;98554.25;5069209;28;20059;-70
2024/01/21 02:12:59;;;;;;;10.27;1.73;;;;;;;7.21;100.00;98549.41;5070237;28;20059;-70
2024/01/21 02:15:26;;;;;;;7.10;1.60;;;;;;;7.40;100.00;98542.19;5070613;28;20052;-70
2024/01/21 02:17:52;;;;;;;9.38;1.80;;;;;;;7.52;100.00;98571.03;5070621;28;20102;-71
2024/01/21 02:20:19;;;;;;;9.30;1.92;;;;;;;7.35;100.00;98572.03;5059637;28;20041;-70
2024/01/21 02:22:47;;;;;;;9.07;1.83;;;;;;;7.55;100.00;98589.91;5067531;28;20052;-70
2024/01/21 02:25:13;;;;;;;13.05;3.00;;;;;;;7.62;100.00;98586.94;5070492;28;20055;-71
2024/01/21 02:27:40;;;;;;;7.95;1.50;;;;;;;7.48;100.00;98580.78;5070149;28;20053;-70
2024/01/21 02:30:07;;;;;;;6.70;1.70;;;;;;;7.69;100.00;98568.25;5069636;28;20048;-70
2024/01/21 02:32:34;;;;;;;6.75;1.63;;;;;;;7.72;100.00;98562.84;5071006;28;20446;-71
2024/01/21 02:35:01;;;;;;;8.70;2.35;;;;;;;7.82;100.00;98563.13;5070558;28;20125;-70
2024/01/21 02:37:28;;;;;;;7.47;2.50;;;;;;;7.77;100.00;98565.16;5070609;28;20066;-71
2024/01/21 02:39:54;;;;;;;6.82;1.58;;;;;;;7.73;100.00;98556.69;5069682;28;20052;-70
2024/01/21 02:42:21;;;;;;;9.88;2.70;;;;;;;7.59;100.00;98551.50;5071156;28;20135;-70
2024/01/21 02:44:50;;;;;;;5.78;1.55;;;;;;;7.55;100.00;98550.84;5070247;28;20052;-70
2024/01/21 02:47:17;;;;;;;5.47;1.23;;;;;;;7.67;100.00;98533.66;5070906;28;20074;-71
2024/01/21 02:49:44;;;;;;;6.45;1.20;;;;;;;7.49;100.00;98539.94;5069534;28;20049;-71
2024/01/21 02:52:11;;;;;;;7.18;1.42;;;;;;;7.38;100.00;98525.81;5070645;28;20516;-70
2024/01/21 02:54:37;;;;;;;8.60;1.60;;;;;;;7.45;100.00;98525.44;5070165;28;20431;-70
2024/01/21 02:57:04;;;;;;;10.15;1.40;;;;;;;7.49;100.00;98521.72;5070458;28;20421;-70
2024/01/21 02:59:31;;;;;;;4.15;1.85;;;;;;;7.49;100.00;98525.19;5068077;28;20052;-70
2024/01/21 03:01:57;;;;;;;2.40;1.00;;;;;;;7.15;100.00;98510.72;5069959;28;20651;-70
2024/01/21 03:04:24;;;;;;;4.13;1.25;;;;;;;7.34;100.00;98536.50;5070621;28;20055;-70
2024/01/21 03:06:51;;;;;;;6.53;1.52;;;;;;;7.46;100.00;98545.38;5070212;28;20258;-70
2024/01/21 03:09:18;;;;;;;3.00;1.10;;;;;;;7.52;100.00;98545.81;5068984;28;20048;-71
2024/01/21 03:11:44;;;;;;;4.85;1.35;;;;;;;7.51;100.00;98540.72;5070819;28;20080;-70
2024/01/21 03:14:11;;;;;;;4.30;1.33;;;;;;;7.41;100.00;98563.84;5069212;28;20056;-71
2024/01/21 03:16:37;;;;;;;4.78;1.88;;;;;;;7.27;100.00;98572.47;5070361;28;20068;-71
2024/01/21 03:19:04;;;;;;;2.80;1.05;;;;;;;7.34;100.00;98578.16;5069347;28;20059;-71
2024/01/21 03:21:31;;;;;;;3.45;1.05;;;;;;;7.33;100.00;98579.06;5056425;28;20072;-71
2024/01/21 03:23:58;;;;;;;2.38;1.08;;;;;;;7.14;100.00;98554.13;5069576;28;20052;-71
2024/01/21 03:26:25;;;;;;;1.45;1.00;;;;;;;7.34;100.00;98567.75;5069337;28;20378;-71
2024/01/21 03:28:51;;;;;;;5.45;1.27;;;;;;;7.13;100.00;98578.47;5067760;28;20486;-71
2024/01/21 03:31:19;;;;;;;2.50;1.00;;;;;;;7.22;100.00;98566.69;5069645;28;20045;-71
2024/01/21 03:33:46;;;;;;;2.55;1.08;;;;;;;7.22;100.00;98562.34;5069993;28;20052;-71
2024/01/21 03:36:13;;;;;;;2.20;1.10;;;;;;;7.28;100.00;98555.94;5069505;28;20478;-72
2024/01/21 03:38:40;;;;;;;3.85;1.23;;;;;;;7.35;100.00;98572.03;5068824;28;20125;-72
2024/01/21 03:41:06;;;;;;;1.23;0.82;;;;;;;7.35;100.00;98569.44;5070237;28;20049;-71
2024/01/21 03:43:33;;;;;;;2.72;1.10;;;;;;;7.31;100.00;98557.50;5054292;28;20055;-70
2024/01/21 03:46:01;;;;;;;1.30;0.88;;;;;;;7.19;100.00;98556.47;5068608;28;20086;-70
2024/01/21 03:48:27;;;;;;;6.93;1.17;;;;;;;7.09;100.00;98547.53;5068908;28;20122;-70
2024/01/21 03:50:54;;;;;;;2.45;1.02;;;;;;;7.17;100.00;98543.56;5068753;28;20056;-70
2024/01/21 03:53:21;;;;;;;3.22;1.20;;;;;;;7.15;100.00;98539.34;5069416;28;20055;-71
2024/01/21 03:55:47;;;;;;;2.55;0.90;;;;;;;7.23;100.00;98527.56;5069357;28;20256;-71
2024/01/21 03:58:14;;;;;;;0.93;0.82;;;;;;;7.27;100.00;98545.59;5069175;28;20052;-70
2024/01/21 04:00:41;;;;;;;3.15;0.98;;;;;;;7.26;100.00;98543.91;5052904;28;20049;-71
2024/01/21 04:03:08;;;;;;;4.00;1.35;;;;;;;7.20;100.00;98543.34;5063261;28;20049;-71
2024/01/21 04:05:34;;;;;;;4.03;1.02;;;;;;;7.23;100.00;98545.78;5056966;28;20163;-70
2024/01/21 04:08:04;;;;;;;4.68;1.00;;;;;;;7.19;100.00;98548.66;5059963;28;20057;-70
2024/01/21 04:10:31;;;;;;;4.68;1.10;;;;;;;7.34;100.00;98552.13;5068742;28;20055;-70
2024/01/21 04:12:58;;;;;;;1.90;1.00;;;;;;;7.24;100.00;98538.81;5069857;28;20041;-71
2024/01/21 04:15:25;;;;;;;1.58;0.88;;;;;;;7.16;100.00;98547.06;5068010;28;20052;-70
2024/01/21 04:17:51;;;;;;;1.67;1.00;;;;;;;7.19;100.00;98557.31;5055250;28;20053;-70
2024/01/21 04:20:18;;;;;;;2.50;0.90;;;;;;;7.20;100.00;98560.75;5068636;28;20056;-71
2024/01/21 04:22:45;;;;;;;2.17;1.00;;;;;;;7.12;100.00;98557.72;5069645;28;20047;-71
2024/01/21 04:25:11;;;;;;;1.70;0.95;;;;;;;7.11;100.00;98543.06;5069795;28;20061;-71
2024/01/21 04:27:38;;;;;;;4.65;0.85;;;;;;;7.07;100.00;98532.00;5073249;28;20055;-71
2024/01/21 04:30:05;;;;;;;2.70;0.95;;;;;;;7.09;100.00;98547.53;5071554;28;20474;-71
2024/01/21 04:32:32;;;;;;;2.72;1.50;;;;;;;7.07;100.00;98552.81;5071684;28;20071;-72
2024/01/21 04:34:59;;;;;;;1.38;0.90;;;;;;;7.01;100.00;98554.00;5058699;28;20505;-72
2024/01/21 04:37:25;;;;;;;2.05;1.00;;;;;;;6.96;100.00;98547.41;5072528;28;20059;-72
2024/01/21 04:39:52;;;;;;;1.40;0.93;;;;;;;6.92;100.00;98558.91;5071449;28;20131;-72
2024/01/21 04:42:19;;;;;;;1.73;1.00;;;;;;;6.87;100.00;98566.97;5072395;28;20044;-70
2024/01/21 04:44:46;;;;;;;2.30;1.00;;;;;;;6.94;100.00;98578.72;5071392;28;20049;-70
2024/01/21 04:47:12;;;;;;;2.33;0.90;;;;;;;6.83;100.00;98574.13;5072408;28;20048;-71
2024/01/21 04:49:39;;;;;;;2.47;1.02;;;;;;;6.77;100.00;98565.81;5071279;28;20051;-70
2024/01/21 04:52:06;;;;;;;1.48;0.90;;;;;;;6.61;100.00;98571.88;5072518;28;20124;-70
2024/01/21 04:54:32;;;;;;;4.10;1.00;;;;;;;6.63;100.00;98571.78;5072601;28;20048;-71
2024/01/21 04:56:59;;;;;;;2.58;1.00;;;;;;;6.52;100.00;98574.16;5073021;28;20056;-70
2024/01/21 04:59:26;;;;;;;5.05;1.08;;;;;;;6.55;100.00;98576.56;5070615;28;20059;-70
2024/01/21 05:01:52;;;;;;;5.57;1.42;;;;;;;6.37;100.00;98575.81;5071926;28;20122;-70
2024/01/21 05:04:19;;;;;;;2.38;1.13;;;;;;;6.35;100.00;98573.31;5071835;28;20053;-71
2024/01/21 05:06:46;;;;;;;5.50;1.20;;;;;;;6.24;100.00;98573.06;5072166;28;20462;-71
2024/01/21 05:09:12;;;;;;;4.10;1.00;;;;;;;6.38;100.00;98580.94;5060516;28;20056;-71
2024/01/21 05:11:39;;;;;;;3.60;1.20;;;;;;;6.59;100.00;98591.94;5072138;28;20118;-72
2024/01/21 05:14:06;;;;;;;3.05;1.00;;;;;;;6.62;100.00;98590.91;5071421;28;20049;-72
2024/01/21 05:16:33;;;;;;;4.10;1.20;;;;;;;6.69;100.00;98594.84;5072169;28;20481;-71
2024/01/21 05:18:59;;;;;;;5.20;1.10;;;;;;;6.69;100.00;98586.22;5071293;28;20040;-71
2024/01/21 05:21:26;;;;;;;3.83;1.20;;;;;;;6.43;100.00;98575.50;5071857;28;20056;-71
2024/01/21 05:23:53;;;;;;;4.05;1.10;;;;;;;6.39;100.00;98568.78;5058210;28;20521;-70
2024/01/21 05:26:19;;;;;;;2.70;0.90;;;;;;;6.53;100.00;98586.22;5071919;28;20048;-72
2024/01/21 05:28:46;;;;;;;3.35;1.17;;;;;;;6.62;100.00;98583.97;5070468;28;20131;-72
2024/01/21 05:31:14;;;;;;;5.78;1.45;;;;;;;6.60;100.00;98591.00;5058055;28;20041;-71
2024/01/21 05:33:40;;;;;;;6.68;1.20;;;;;;;6.53;100.00;98599.22;5071828;28;20056;-71
2024/01/21 05:36:09;;;;;;;9.27;1.90;;;;;;;6.55;100.00;98610.38;5070637;28;20083;-71
2024/01/21 05:38:36;;;;;;;7.25;1.50;;;;;;;6.80;100.00;98620.28;5070972;28;20482;-72
2024/01/21 05:41:03;;;;;;;4.88;2.22;;;;;;;6.78;100.00;98620.38;5071658;28;20063;-71
2024/01/21 05:43:29;;;;;;;4.95;1.35;;;;;;;6.72;100.00;98612.06;5071037;28;20048;-71
2024/01/21 05:45:56;;;;;;;2.58;1.10;;;;;;;6.73;100.00;98606.78;5070300;28;20099;-71
2024/01/21 05:48:23;;;;;;;1.98;1.10;;;;;;;6.68;100.00;98608.78;5070340;28;20064;-71
2024/01/21 05:50:50;;;;;;;4.00;1.17;;;;;;;6.69;100.00;98623.44;5069252;28;20105;-71
2024/01/21 05:53:17;;;;;;;3.42;1.20;;;;;;;6.53;100.00;98643.41;5058647;28;20044;-70
2024/01/21 05:55:45;;;;;;;4.72;1.20;;;;;;;6.63;100.00;98632.44;5070944;28;20410;-72
2024/01/21 05:58:12;;;;;;;6.18;1.75;;;;;;;6.63;100.00;98640.22;5070475;28;20079;-71
2024/01/21 06:00:39;;;;;;;6.28;1.05;;;;;;;6.59;100.00;98649.13;5070108;28;20503;-71
2024/01/21 06:03:06;;;;;;;4.97;1.90;;;;;;;6.53;100.00;98652.06;5070533;28;20045;-71
2024/01/21 06:05:33;;;;;;;5.95;2.08;;;;;;;6.55;100.00;98657.19;5067083;28;20090;-70
2024/01/21 06:08:00;;;;;;;1.77;1.00;;;;;;;6.44;100.00;98661.19;5064693;28;20580;-70
2024/01/21 06:10:26;;;;;;;2.97;1.02;;;;;;;6.44;100.00;98652.56;5069142;28;20048;-70
2024/01/21 06:12:53;;;;;;;2.28;0.90;;;;;;;6.43;100.00;98640.50;5070040;28;20049;-70
2024/01/21 06:15:20;;;;;;;2.97;1.10;;;;;;;6.36;100.00;98634.78;5070573;28;20048;-70
2024/01/21 06:17:50;;;;;;;3.47;1.08;;;;;;;6.29;100.00;98630.84;5071420;28;20055;-70
2024/01/21 06:20:17;;;;;;;3.75;1.13;;;;;;;6.24;100.00;98623.28;5069387;28;20426;-72
2024/01/21 06:22:43;;;;;;;2.28;1.10;;;;;;;6.10;100.00;98632.75;5057173;28;20048;-71
2024/01/21 06:25:11;;;;;;;5.47;1.27;;;;;;;5.84;100.00;98602.00;5070940;28;20057;-71
2024/01/21 06:27:38;;;;;;;3.17;1.23;;;;;;;5.87;100.00;98624.34;5069792;28;20051;-70
2024/01/21 06:30:15;;;;;;;7.68;2.05;;;;;;;5.91;100.00;98631.06;5068928;28;20056;-70
2024/01/21 06:32:42;;;;;;;5.10;1.20;;;;;;;5.79;100.00;98610.91;5069941;28;20493;-70
2024/01/21 06:35:26;;;;;;;2.38;1.20;;;;;;;5.80;100.00;98615.19;5070007;28;20131;-70
2024/01/21 06:37:53;;;;;;;1.75;1.00;;;;;;;5.62;100.00;98607.44;5069747;28;20491;-70
2024/01/21 06:40:20;;;;;;;4.15;1.17;;;;;;;5.57;100.00;98612.03;5069902;28;20414;-70
2024/01/21 06:42:47;;;;;;;3.92;1.13;;;;;;;5.55;100.00;98618.22;5070361;28;20155;-69
2024/01/21 06:45:14;;;;;;;6.50;1.40;;;;;;;5.44;100.00;98624.78;5070320;28;20051;-72
2024/01/21 06:47:41;;;;;;;3.40;1.13;;;;;;;5.50;100.00;98613.25;5070146;28;20087;-72
2024/01/21 06:50:11;;;;;;;3.33;1.40;;;;;;;5.41;100.00;98600.75;5069039;28;20093;-70
2024/01/21 06:52:38;;;;;;;2.13;1.13;;;;;;;5.46;100.00;98607.38;5069309;28;20051;-70
2024/01/21 06:55:06;;;;;;;4.68;1.38;;;;;;;5.47;100.00;98614.25;5070134;28;20106;-70
2024/01/21 06:57:33;;;;;;;12.95;1.73;;;;;;;5.05;100.00;98599.09;5070438;28;20048;-72
2024/01/21 07:00:03;;;;;;;12.40;2.50;;;;;;;5.03;100.00;98619.03;5069297;28;20044;-72
2024/01/21 07:02:30;;;;;;;12.55;2.33;;;;;;;5.09;100.00;98617.00;5069640;28;20055;-72
2024/01/21 07:04:56;;;;;;;15.55;3.75;;;;;;;5.07;100.00;98611.03;5068095;28;20059;-72
2024/01/21 07:07:23;;;;;;;15.10;3.05;;;;;;;5.11;100.00;98617.75;5063567;28;20056;-72
2024/01/21 07:09:50;;;;;;;13.85;2.65;;;;;;;5.20;100.00;98618.22;5062299;28;20056;-71
2024/01/21 07:12:17;;;;;;;10.18;3.17;;;;;;;5.22;100.00;98625.00;5069159;28;20494;-71
2024/01/21 07:14:43;;;;;;;13.93;2.65;;;;;;;5.39;100.00;98646.72;5069437;28;20075;-71
2024/01/21 07:17:11;;;;;;;12.15;2.55;;;;;;;5.32;100.00;98641.81;5069529;28;20050;-71
2024/01/21 07:19:37;;;;;;;14.70;3.85;;;;;;;5.42;100.00;98647.41;5069061;28;20144;-71
2024/01/21 07:22:04;;;;;;;10.27;2.20;;;;;;;5.41;100.00;98647.47;5070025;28;20398;-71
2024/01/21 07:24:31;;;;;;;18.08;2.72;;;;;;;5.40;100.00;98635.38;5068921;28;20045;-71
2024/01/21 07:26:57;;;;;;;20.95;2.42;;;;;;;5.35;100.00;98639.97;5070135;28;20478;-71
2024/01/21 07:29:24;;;;;;;8.93;2.33;;;;;;;5.33;100.00;98630.53;5069040;28;20045;-71
2024/01/21 07:31:51;;;;;;;16.40;4.00;;;;;;;5.26;100.00;98618.78;5070388;28;20044;-70
2024/01/21 07:34:18;;;;;;;6.93;2.03;;;;;;;5.56;100.00;98632.88;5069043;28;20332;-70
2024/01/21 07:36:45;;;;;;;11.23;2.20;;;;;;;5.35;100.00;98629.59;5069381;28;20055;-70
2024/01/21 07:39:11;;;;;;;9.05;2.10;;;;;;;5.54;100.00;98635.53;5067643;28;20056;-71
2024/01/21 07:41:38;;;;;;;11.07;2.30;;;;;;;5.46;100.00;98635.09;5058066;28;20049;-72
2024/01/21 07:44:05;;;;;;;7.90;1.80;;;;;;;5.53;100.00;98654.63;5069293;28;20055;-71
2024/01/21 07:46:32;;;;;;;11.63;2.42;;;;;;;5.50;100.00;98644.41;5068666;28;20055;-71
2024/01/21 07:48:58;;;;;;;13.68;2.70;;;;;;;5.65;100.00;98656.63;5060574;28;20501;-72
2024/01/21 07:51:25;;;;;;;8.30;1.80;;;;;;;5.38;100.00;98652.81;5070244;28;20463;-72
2024/01/21 07:53:52;;;;;;;7.40;1.75;;;;;;;5.58;100.00;98676.03;5068532;28;20048;-72
2024/01/21 07:56:19;;;;;;;6.65;2.08;;;;;;;5.75;100.00;98669.97;5069610;28;20143;-71
2024/01/21 07:58:45;;;;;;;8.25;1.75;;;;;;;5.92;100.00;98660.50;5067313;28;20127;-72
2024/01/21 08:01:12;;;;;;;9.52;2.00;;;;;;;5.82;100.00;98668.72;5069570;28;20059;-71
2024/01/21 08:03:40;;;;;;;7.35;1.70;;;;;;;5.98;100.00;98674.00;5072323;28;20084;-72
2024/01/21 08:06:07;;;;;;;8.27;2.15;;;;;;;6.01;100.00;98666.06;5073189;28;20048;-72
2024/01/21 08:08:35;;;;;;;10.98;3.67;;;;;;;6.07;100.00;98670.97;5060302;28;20083;-72
2024/01/21 08:11:01;;;;;;;6.90;1.65;;;;;;;6.08;100.00;98672.63;5071921;28;20044;-71
2024/01/21 08:13:28;;;;;;;7.40;1.80;;;;;;;6.09;100.00;98676.03;5072938;28;20548;-72
2024/01/21 08:15:55;;;;;;;5.03;1.50;;;;;;;6.05;100.00;98664.16;5059515;28;20052;-71
2024/01/21 08:18:22;;;;;;;5.03;1.50;;;;;;;6.16;100.00;98671.38;5069877;28;20136;-72
2024/01/21 08:20:49;;;;;;;5.68;1.50;;;;;;;6.13;100.00;98669.78;5073922;28;20044;-71
2024/01/21 08:23:16;;;;;;;7.05;1.52;;;;;;;5.97;100.00;98664.56;5073342;28;20071;-71
2024/01/21 08:25:42;;;;;;;9.85;1.92;;;;;;;5.63;100.00;98648.06;5071519;28;20048;-72
2024/01/21 08:28:09;;;;;;;8.80;1.65;;;;;;;5.90;100.00;98673.56;5072259;28;20508;-71
2024/01/21 08:30:36;;;;;;;11.27;1.60;;;;;;;6.09;100.00;98670.84;5071884;28;20052;-72
2024/01/21 08:33:03;;;;;;;10.48;2.25;;;;;;;6.13;100.00;98659.41;5072413;28;20047;-71
2024/01/21 08:35:30;;;;;;;7.95;2.25;;;;;;;6.16;100.00;98660.97;5073035;28;20053;-71
2024/01/21 08:37:56;;;;;;;7.47;2.00;;;;;;;6.08;100.00;98664.81;5072944;28;20485;-71
2024/01/21 08:40:23;;;;;;;14.52;2.58;;;;;;;6.06;100.00;98658.88;5072230;28;20412;-71
2024/01/21 08:42:50;;;;;;;10.30;1.98;;;;;;;6.01;100.00;98657.44;5071937;28;20044;-71
2024/01/21 08:45:16;;;;;;;16.50;3.55;;;;;;;6.18;100.00;98641.81;5072774;28;20086;-71
2024/01/21 08:47:43;;;;;;;14.05;2.10;;;;;;;6.23;100.00;98655.41;5072819;28;20494;-72
2024/01/21 08:50:10;;;;;;;10.73;2.40;;;;;;;6.10;100.00;98654.34;5069995;28;20045;-72
2024/01/21 08:52:37;;;;;;;8.52;2.17;;;;;;;6.03;100.00;98635.63;5072703;28;20402;-71
2024/01/21 08:55:04;;;;;;;8.10;1.85;;;;;;;6.29;100.00;98635.22;5072642;28;20075;-72
2024/01/21 08:57:31;;;;;;;7.82;2.17;;;;;;;6.31;100.00;98636.78;5072779;28;20433;-71
2024/01/21 08:59:57;;;;;;;8.85;2.35;;;;;;;6.30;100.00;98639.47;5071292;28;20102;-71
2024/01/21 09:02:24;;;;;;;8.25;2.10;;;;;;;6.36;100.00;98632.19;5072407;28;20040;-72
2024/01/21 09:04:51;;;;;;;7.22;1.83;;;;;;;6.40;100.00;98617.25;5070933;28;20524;-72
2024/01/21 09:07:17;;;;;;;8.50;2.08;;;;;;;6.53;100.00;98618.25;5068871;28;20049;-72
2024/01/21 09:09:44;;;;;;;7.72;1.80;;;;;;;6.56;100.00;98623.28;5071017;28;20056;-71
2024/01/21 09:12:14;;;;;;;10.90;2.28;;;;;;;6.45;100.00;98599.66;5070989;28;20052;-72
2024/01/21 09:14:41;;;;;;;6.43;1.80;;;;;;;6.48;100.00;98609.91;5071236;28;20107;-72
2024/01/21 09:17:08;;;;;;;8.07;2.33;;;;;;;6.37;100.00;98614.81;5071970;28;20601;-72
2024/01/21 09:19:34;;;;;;;8.50;2.08;;;;;;;6.28;100.00;98610.97;5071687;28;20379;-71
2024/01/21 09:22:01;;;;;;;10.98;2.88;;;;;;;6.27;100.00;98619.69;5071972;28;20048;-71
2024/01/21 09:24:28;;;;;;;9.60;2.53;;;;;;;6.24;100.00;98615.47;5072608;28;20097;-72
2024/01/21 09:26:55;;;;;;;4.45;1.60;;;;;;;6.30;100.00;98614.31;5071778;28;20048;-72
2024/01/21 09:29:22;;;;;;;7.90;1.90;;;;;;;6.40;100.00;98615.50;5070285;28;20414;-72
2024/01/21 09:31:55;;;;;;;6.38;2.03;;;;;;;6.39;100.00;98613.84;5071420;28;20052;-71
2024/01/21 09:34:22;;;;;;;5.78;1.70;;;;;;;6.47;100.00;98618.59;5071664;28;20040;-71
2024/01/21 09:36:51;;;;;;;5.53;1.90;;;;;;;6.44;100.00;98592.75;5072114;28;20485;-72
2024/01/21 09:39:18;;;;;;;7.28;2.10;;;;;;;6.53;100.00;98610.44;5071346;28;20048;-71
2024/01/21 09:41:50;;;;;;;7.13;2.60;;;;;;;6.46;100.00;98603.91;5071994;28;20044;-72
2024/01/21 09:44:25;;;;;;;8.88;2.65;;;;;;;6.51;100.00;98604.50;5069471;28;20040;-71
2024/01/21 09:46:53;;;;;;;11.73;2.40;;;;;;;6.27;100.00;98602.31;5059862;28;20054;-72
2024/01/21 09:49:20;;;;;;;9.55;2.45;;;;;;;6.43;100.00;98586.75;5070660;28;20124;-72
2024/01/21 09:51:49;;;;;;;6.53;1.83;;;;;;;6.52;100.00;98597.56;5069500;28;20045;-71
2024/01/21 09:54:16;;;;;;;7.40;2.10;;;;;;;6.60;100.00;98591.00;5064822;28;20369;-71
2024/01/21 09:56:43;;;;;;;8.05;1.95;;;;;;;6.65;100.00;98599.38;5059011;28;20143;-72
2024/01/21 09:59:11;;;;;;;5.35;1.85;;;;;;;6.66;100.00;98589.84;5070837;28;20053;-71
2024/01/21 10:01:40;;;;;;;11.63;2.67;;;;;;;6.63;100.00;98577.81;5070423;28;20064;-72
2024/01/21 10:04:10;;;;;;;6.53;2.00;;;;;;;6.51;100.00;98559.47;5069740;28;20045;-72
2024/01/21 10:06:37;;;;;;;8.85;2.50;;;;;;;6.58;100.00;98561.63;5070827;28;20094;-71
2024/01/21 10:09:11;;;;;;;6.97;2.30;;;;;;;6.64;100.00;98565.69;5057951;28;20040;-72
2024/01/21 10:11:39;;;;;;;4.68;2.03;;;;;;;6.74;100.00;98552.97;5071409;28;20056;-71
2024/01/21 10:14:06;;;;;;;10.38;2.63;;;;;;;6.63;100.00;98548.38;5071246;28;20036;-71
2024/01/21 10:16:32;;;;;;;7.22;2.55;;;;;;;6.56;100.00;98540.09;5069490;28;20482;-72
2024/01/21 10:19:00;;;;;;;10.05;2.63;;;;;;;6.90;100.00;98551.19;5069313;28;20047;-71
2024/01/21 10:21:27;;;;;;;10.45;2.45;;;;;;;6.81;100.00;98547.34;5070883;28;20156;-72
2024/01/21 10:23:53;;;;;;;11.38;2.50;;;;;;;6.95;100.00;98541.34;5069017;28;20044;-71
2024/01/21 10:26:20;;;;;;;20.48;3.55;;;;;;;6.97;100.00;98526.47;5070141;28;20045;-72
2024/01/21 10:28:47;;;;;;;11.52;2.80;;;;;;;6.96;100.00;98537.84;5069244;28;20063;-71
2024/01/21 10:31:14;;;;;;;11.07;2.78;;;;;;;7.09;100.00;98535.34;5054081;28;20044;-71
2024/01/21 10:33:44;;;;;;;18.10;3.20;;;;;;;6.82;100.00;98522.19;5069440;28;20057;-71
2024/01/21 10:36:14;;;;;;;9.68;2.60;;;;;;;7.02;100.00;98505.41;5070429;28;20109;-71
2024/01/21 10:38:52;;;;;;;9.43;2.30;;;;;;;7.18;100.00;98511.38;5069629;28;20490;-70
2024/01/21 10:41:40;;;;;;;11.68;2.78;;;;;;;6.93;100.00;98521.56;5070341;28;20044;-71
2024/01/21 10:44:08;;;;;;;9.32;2.40;;;;;;;6.91;100.00;98502.59;5070632;28;20060;-70
2024/01/21 10:46:37;;;;;;;10.73;2.55;;;;;;;6.74;100.00;98493.16;5069881;28;20049;-71
2024/01/21 10:49:05;;;;;;;9.95;2.25;;;;;;;6.83;100.00;98501.28;5068811;28;20044;-72
2024/01/21 10:51:32;;;;;;;14.43;3.42;;;;;;;6.72;100.00;98501.06;5069955;28;20052;-72
2024/01/21 10:53:59;;;;;;;9.18;2.55;;;;;;;6.81;100.00;98504.88;5070133;28;20052;-72
2024/01/21 10:56:27;;;;;;;8.13;2.85;;;;;;;6.84;100.00;98494.31;5070262;28;20060;-71
2024/01/21 10:58:54;;;;;;;11.68;2.38;;;;;;;6.69;100.00;98487.38;5069134;28;20044;-72
2024/01/21 11:01:23;;;;;;;11.95;2.50;;;;;;;6.65;100.00;98486.72;5068678;28;20045;-72
2024/01/21 11:04:02;;;;;;;11.05;2.95;;;;;;;6.58;100.00;98495.81;5069324;28;20044;-71
2024/01/21 11:06:31;;;;;;;11.77;2.90;;;;;;;6.61;100.00;98486.06;5069483;28;20113;-72
2024/01/21 11:09:02;;;;;;;9.73;2.30;;;;;;;6.62;100.00;98482.56;5056836;28;20048;-71
2024/01/21 11:11:29;;;;;;;9.00;1.63;;;;;;;6.57;100.00;98470.72;5070358;28;20051;-71
2024/01/21 11:13:56;;;;;;;6.60;1.80;;;;;;;6.53;100.00;98482.22;5069244;28;20048;-71
2024/01/21 11:16:26;;;;;;;10.13;2.50;;;;;;;6.68;100.00;98468.34;5067420;28;20056;-71
2024/01/21 11:18:53;;;;;;;15.15;2.50;;;;;;;6.59;100.00;98464.53;5068899;28;20062;-71
2024/01/21 11:21:20;;;;;;;9.05;2.00;;;;;;;6.84;100.00;98479.53;5069799;28;20048;-71
2024/01/21 11:24:03;;;;;;;10.02;2.10;;;;;;;6.76;100.00;98453.13;5070241;28;20056;-71
2024/01/21 11:26:31;;;;;;;5.30;1.35;;;;;;;6.91;100.00;98447.97;5070117;28;20057;-72
2024/01/21 11:29:05;;;;;;;8.75;1.90;;;;;;;6.88;100.00;98458.56;5068886;28;20057;-71
2024/01/21 11:31:34;;;;;;;11.55;2.63;;;;;;;6.88;100.00;98463.75;5070526;28;20459;-71